Time;durP1;ratioP1;P1;durP2;ratioP2;P2;SDS_P1;SDS_P2;PMS_P1;PMS_P2;Temp;Humidity;BMP_temperature;BMP_pressure;BME280_temperature;BME280_humidity;BME280_pressure;Samples;Min_cycle;Max_cycle;Signal;HPM_P1;HPM_P2
2022/12/02 00:00:50;;;;;;;;;57.50;47.75;;;;;;;;4912779;29;11618;-80
2022/12/02 00:03:21;;;;;;;;;47.50;40.25;;;;;;;;4930334;29;11567;-79
2022/12/02 00:05:50;;;;;;;;;37.50;36.25;;;;;;;;4930141;29;11605;-80
2022/12/02 00:08:21;;;;;;;;;47.50;39.50;;;;;;;;4928839;29;11585;-80
2022/12/02 00:10:50;;;;;;;;;47.50;40.25;;;;;;;;4928608;29;11613;-82
2022/12/02 00:13:23;;;;;;;;;50.50;39.75;;;;;;;;4929354;29;11637;-81
2022/12/02 00:15:53;;;;;;;;;48.50;40.50;;;;;;;;4928196;29;11553;-83
2022/12/02 00:18:21;;;;;;;;;50.75;39.25;;;;;;;;4930414;29;11544;-81
2022/12/02 00:20:49;;;;;;;;;55.00;44.75;;;;;;;;4930117;29;11565;-80
2022/12/02 00:23:16;;;;;;;;;47.00;41.00;;;;;;;;4930126;29;11542;-80
2022/12/02 00:25:47;;;;;;;;;42.50;36.00;;;;;;;;4912789;29;11575;-81
2022/12/02 00:28:16;;;;;;;;;55.50;42.75;;;;;;;;4929879;29;11571;-80
2022/12/02 00:30:46;;;;;;;;;44.25;38.75;;;;;;;;4913400;29;11526;-81
2022/12/02 00:33:17;;;;;;;;;52.50;43.25;;;;;;;;4927516;29;11566;-81
2022/12/02 00:35:44;;;;;;;;;56.25;47.00;;;;;;;;4928620;29;11654;-80
2022/12/02 00:38:12;;;;;;;;;57.50;42.25;;;;;;;;4930262;29;11101;-79
2022/12/02 00:40:39;;;;;;;;;56.75;43.75;;;;;;;;4927197;29;11545;-80
2022/12/02 00:48:38;;;;;;;;;46.75;41.00;;;;;;;;4913419;29;11537;-81
2022/12/02 00:51:06;;;;;;;;;48.00;41.00;;;;;;;;4926817;29;11561;-80
2022/12/02 00:53:34;;;;;;;;;62.50;50.00;;;;;;;;4912437;29;11562;-80
2022/12/02 00:56:02;;;;;;;;;68.00;53.25;;;;;;;;4929198;29;11565;-80
2022/12/02 00:58:29;;;;;;;;;50.75;43.25;;;;;;;;4928374;28;11595;-80
2022/12/02 01:00:59;;;;;;;;;43.50;38.25;;;;;;;;4926762;29;12349;-81
2022/12/02 01:03:26;;;;;;;;;44.25;39.75;;;;;;;;4927386;29;11540;-80
2022/12/02 01:05:54;;;;;;;;;57.75;43.00;;;;;;;;4927132;29;11552;-80
2022/12/02 01:08:26;;;;;;;;;54.00;47.25;;;;;;;;4928954;29;11600;-80
2022/12/02 01:10:53;;;;;;;;;52.50;39.75;;;;;;;;4927059;29;11556;-84
2022/12/02 01:13:21;;;;;;;;;53.25;44.75;;;;;;;;4927995;29;11627;-81
2022/12/02 01:15:49;;;;;;;;;54.75;46.25;;;;;;;;4928196;29;11635;-80
2022/12/02 01:18:19;;;;;;;;;65.25;50.00;;;;;;;;4911858;29;11566;-82
2022/12/02 01:20:47;;;;;;;;;56.50;45.75;;;;;;;;4927156;29;11585;-81
2022/12/02 01:23:14;;;;;;;;;56.75;45.00;;;;;;;;4928347;29;11562;-80
2022/12/02 01:25:42;;;;;;;;;57.50;46.00;;;;;;;;4911370;29;11545;-81
2022/12/02 01:28:10;;;;;;;;;63.50;50.00;;;;;;;;4928311;29;11560;-80
2022/12/02 01:30:37;;;;;;;;;51.50;41.25;;;;;;;;4928219;29;11542;-78
2022/12/02 01:33:05;;;;;;;;;59.75;48.00;;;;;;;;4910482;29;11580;-79
2022/12/02 01:35:34;;;;;;;;;48.50;43.25;;;;;;;;4928490;29;11631;-80
2022/12/02 01:38:01;;;;;;;;;54.75;43.75;;;;;;;;4929669;29;11534;-80
2022/12/02 01:40:31;;;;;;;;;51.25;40.25;;;;;;;;4925948;29;11579;-79
2022/12/02 01:42:58;;;;;;;;;61.75;46.75;;;;;;;;4928104;29;12367;-80
2022/12/02 01:45:26;;;;;;;;;58.75;46.50;;;;;;;;4926771;29;11586;-80
2022/12/02 01:47:54;;;;;;;;;63.75;48.00;;;;;;;;4928652;29;11549;-79
2022/12/02 01:50:23;;;;;;;;;51.75;42.50;;;;;;;;4927777;29;11618;-79
2022/12/02 01:52:52;;;;;;;;;58.00;45.75;;;;;;;;4927026;29;11682;-81
2022/12/02 01:55:23;;;;;;;;;56.75;44.25;;;;;;;;4928225;29;11580;-80
2022/12/02 01:57:50;;;;;;;;;65.25;50.75;;;;;;;;4926399;29;11571;-80
2022/12/02 02:00:19;;;;;;;;;60.50;48.75;;;;;;;;4925245;29;11552;-80
2022/12/02 02:02:47;;;;;;;;;55.25;44.75;;;;;;;;4927810;29;11556;-81
2022/12/02 02:05:16;;;;;;;;;42.25;38.75;;;;;;;;4927587;29;11556;-81
2022/12/02 02:07:45;;;;;;;;;54.25;44.00;;;;;;;;4928278;29;11535;-80
2022/12/02 02:10:14;;;;;;;;;54.25;43.25;;;;;;;;4927931;29;11657;-80
2022/12/02 02:12:42;;;;;;;;;56.00;43.75;;;;;;;;4896051;29;11710;-80
2022/12/02 02:15:11;;;;;;;;;50.75;41.50;;;;;;;;4928028;29;11571;-81
2022/12/02 02:17:40;;;;;;;;;55.00;45.50;;;;;;;;4927943;29;11668;-81
2022/12/02 02:20:11;;;;;;;;;56.25;44.25;;;;;;;;4924886;29;11556;-81
2022/12/02 02:22:43;;;;;;;;;55.75;46.75;;;;;;;;4926776;29;11571;-80
2022/12/02 02:25:15;;;;;;;;;52.50;41.00;;;;;;;;4926595;29;11582;-81
2022/12/02 02:27:46;;;;;;;;;55.50;42.25;;;;;;;;4926195;29;11673;-79
2022/12/02 02:30:14;;;;;;;;;45.75;39.25;;;;;;;;4909506;29;11536;-80
2022/12/02 02:32:42;;;;;;;;;50.75;41.75;;;;;;;;4926685;28;11547;-80
2022/12/02 02:35:10;;;;;;;;;57.50;46.75;;;;;;;;4925845;29;11562;-79
2022/12/02 02:37:38;;;;;;;;;53.50;46.25;;;;;;;;4909548;29;11521;-80
2022/12/02 02:40:07;;;;;;;;;58.25;45.75;;;;;;;;4922602;29;11596;-80
2022/12/02 02:43:11;;;;;;;;;49.00;41.00;;;;;;;;4925682;29;11671;-80
2022/12/02 02:45:40;;;;;;;;;42.25;39.50;;;;;;;;4923447;29;11583;-80
2022/12/02 02:48:09;;;;;;;;;55.75;43.75;;;;;;;;4910683;29;11546;-80
2022/12/02 02:50:38;;;;;;;;;49.50;42.75;;;;;;;;4925879;29;11559;-80
2022/12/02 02:53:06;;;;;;;;;49.00;41.00;;;;;;;;4927476;29;11538;-81
2022/12/02 02:55:34;;;;;;;;;41.75;38.00;;;;;;;;4924086;29;12391;-80
2022/12/02 02:58:10;;;;;;;;;55.75;43.50;;;;;;;;4927055;29;11560;-80
2022/12/02 03:00:39;;;;;;;;;48.00;43.25;;;;;;;;4908711;29;11083;-80
2022/12/02 03:03:06;;;;;;;;;55.00;43.50;;;;;;;;4927481;29;11692;-80
2022/12/02 03:05:35;;;;;;;;;58.25;46.50;;;;;;;;4925613;29;11532;-80
2022/12/02 03:08:02;;;;;;;;;59.00;45.50;;;;;;;;4925577;29;11558;-80
2022/12/02 03:10:30;;;;;;;;;60.75;46.50;;;;;;;;4926807;29;11581;-81
2022/12/02 03:12:58;;;;;;;;;59.75;46.00;;;;;;;;4926404;29;11558;-81
2022/12/02 03:15:29;;;;;;;;;58.00;47.50;;;;;;;;4924406;29;11576;-81
2022/12/02 03:17:59;;;;;;;;;59.25;49.75;;;;;;;;4923411;29;11697;-81
2022/12/02 03:20:27;;;;;;;;;52.50;45.00;;;;;;;;4926487;29;11579;-80
2022/12/02 03:22:55;;;;;;;;;52.75;43.75;;;;;;;;4927051;29;11651;-80
2022/12/02 03:25:24;;;;;;;;;53.25;44.25;;;;;;;;4906511;29;12279;-81
2022/12/02 03:27:51;;;;;;;;;54.00;43.00;;;;;;;;4927332;29;11578;-80
2022/12/02 03:30:19;;;;;;;;;54.50;43.00;;;;;;;;4909183;29;11582;-81
2022/12/02 03:32:49;;;;;;;;;54.50;43.50;;;;;;;;4926179;29;11529;-80
2022/12/02 03:35:17;;;;;;;;;52.25;40.75;;;;;;;;4927173;29;11580;-80
2022/12/02 03:37:44;;;;;;;;;64.00;50.00;;;;;;;;4926011;29;11543;-81
2022/12/02 03:40:13;;;;;;;;;55.25;45.50;;;;;;;;4926872;29;11576;-80
2022/12/02 03:42:41;;;;;;;;;58.00;44.00;;;;;;;;4925330;29;11528;-81
2022/12/02 03:45:10;;;;;;;;;50.00;41.00;;;;;;;;4926371;29;11582;-80
2022/12/02 03:47:38;;;;;;;;;59.50;49.00;;;;;;;;4909675;29;11181;-81
2022/12/02 03:50:08;;;;;;;;;60.25;46.00;;;;;;;;4925017;29;11565;-80
2022/12/02 03:52:36;;;;;;;;;57.50;48.25;;;;;;;;4924830;29;11553;-81
2022/12/02 03:55:04;;;;;;;;;42.75;34.75;;;;;;;;4923938;29;11592;-80
2022/12/02 03:57:33;;;;;;;;;56.25;44.75;;;;;;;;4909371;29;11674;-81
2022/12/02 04:00:01;;;;;;;;;50.00;41.25;;;;;;;;4924388;29;11567;-81
2022/12/02 04:02:29;;;;;;;;;56.75;43.00;;;;;;;;4893628;29;11552;-79
2022/12/02 04:04:57;;;;;;;;;46.50;41.00;;;;;;;;4925442;29;11587;-81
2022/12/02 04:07:26;;;;;;;;;55.00;45.50;;;;;;;;4926275;29;11556;-80
2022/12/02 04:09:55;;;;;;;;;56.50;45.25;;;;;;;;4909182;29;11573;-80
2022/12/02 04:12:22;;;;;;;;;57.50;46.25;;;;;;;;4926058;29;11547;-80
2022/12/02 04:14:51;;;;;;;;;60.00;47.00;;;;;;;;4924677;29;11533;-81
2022/12/02 04:17:19;;;;;;;;;51.75;43.00;;;;;;;;4925506;29;11583;-81
2022/12/02 04:19:47;;;;;;;;;56.25;45.00;;;;;;;;4908290;29;12490;-81
2022/12/02 04:22:15;;;;;;;;;55.00;47.00;;;;;;;;4923155;29;11541;-80
2022/12/02 04:24:44;;;;;;;;;47.25;39.25;;;;;;;;4926012;29;11557;-80
2022/12/02 04:27:12;;;;;;;;;58.50;44.25;;;;;;;;4929706;29;11545;-80
2022/12/02 04:29:42;;;;;;;;;61.50;46.00;;;;;;;;4928973;28;11584;-80
2022/12/02 04:32:11;;;;;;;;;51.00;42.75;;;;;;;;4927218;29;11566;-81
2022/12/02 04:34:38;;;;;;;;;53.50;40.50;;;;;;;;4912725;29;11708;-79
2022/12/02 04:37:06;;;;;;;;;59.00;45.50;;;;;;;;4929005;29;11533;-80
2022/12/02 04:39:34;;;;;;;;;59.00;44.50;;;;;;;;4928880;29;11544;-80
2022/12/02 04:42:03;;;;;;;;;59.50;46.25;;;;;;;;4929813;29;11591;-80
2022/12/02 04:44:30;;;;;;;;;53.75;43.25;;;;;;;;4927759;29;11085;-80
2022/12/02 04:46:58;;;;;;;;;60.00;45.50;;;;;;;;4927776;29;11640;-80
2022/12/02 04:49:25;;;;;;;;;52.25;41.75;;;;;;;;4929187;29;11551;-81
2022/12/02 04:51:54;;;;;;;;;49.25;39.75;;;;;;;;4913391;29;11553;-80
2022/12/02 04:54:22;;;;;;;;;53.75;43.00;;;;;;;;4927891;29;11603;-80
2022/12/02 04:56:50;;;;;;;;;59.00;44.75;;;;;;;;4925664;29;11539;-79
2022/12/02 04:59:19;;;;;;;;;52.00;43.00;;;;;;;;4926898;29;12512;-79
2022/12/02 05:01:47;;;;;;;;;50.25;44.25;;;;;;;;4910058;29;12307;-79
2022/12/02 05:04:14;;;;;;;;;58.00;47.00;;;;;;;;4927512;29;11565;-80
2022/12/02 05:06:43;;;;;;;;;55.00;43.00;;;;;;;;4909796;29;11565;-80
2022/12/02 05:09:11;;;;;;;;;51.75;40.75;;;;;;;;4927716;29;11537;-80
2022/12/02 05:11:38;;;;;;;;;52.50;44.75;;;;;;;;4928658;29;11641;-80
2022/12/02 05:14:06;;;;;;;;;56.25;43.25;;;;;;;;4927858;29;12614;-80
2022/12/02 05:16:35;;;;;;;;;48.00;39.25;;;;;;;;4925218;29;11079;-80
2022/12/02 05:19:03;;;;;;;;;63.75;50.50;;;;;;;;4912070;29;11526;-79
2022/12/02 05:21:31;;;;;;;;;53.75;42.25;;;;;;;;4926163;29;11590;-80
2022/12/02 05:23:59;;;;;;;;;55.75;43.00;;;;;;;;4925975;29;11537;-80
2022/12/02 05:26:26;;;;;;;;;52.75;43.75;;;;;;;;4925291;29;11591;-80
2022/12/02 05:28:54;;;;;;;;;54.75;44.00;;;;;;;;4926032;29;11667;-79
2022/12/02 05:31:21;;;;;;;;;62.00;47.00;;;;;;;;4926759;29;11546;-80
2022/12/02 05:33:52;;;;;;;;;53.25;42.75;;;;;;;;4928837;29;11672;-81
2022/12/02 05:36:20;;;;;;;;;63.50;48.75;;;;;;;;4911327;29;11567;-80
2022/12/02 05:38:48;;;;;;;;;63.75;50.50;;;;;;;;4927983;29;11759;-81
2022/12/02 05:41:15;;;;;;;;;61.00;49.75;;;;;;;;4912882;29;11670;-81
2022/12/02 05:43:45;;;;;;;;;64.00;49.00;;;;;;;;4928855;29;11568;-82
2022/12/02 05:46:17;;;;;;;;;69.00;49.75;;;;;;;;4928471;29;11571;-81
2022/12/02 05:48:45;;;;;;;;;55.25;45.25;;;;;;;;4928310;29;11655;-80
2022/12/02 05:51:15;;;;;;;;;59.00;46.75;;;;;;;;4928783;29;11556;-79
2022/12/02 05:53:45;;;;;;;;;45.25;38.75;;;;;;;;4926853;29;11589;-80
2022/12/02 05:56:14;;;;;;;;;59.75;46.75;;;;;;;;4928099;29;11598;-80
2022/12/02 05:58:42;;;;;;;;;61.00;50.50;;;;;;;;4927619;29;11560;-79
2022/12/02 06:01:21;;;;;;;;;57.25;47.50;;;;;;;;4928069;29;11546;-80
2022/12/02 06:03:49;;;;;;;;;66.25;54.00;;;;;;;;4926709;29;11594;-79
2022/12/02 06:06:20;;;;;;;;;63.00;49.00;;;;;;;;4910856;29;11663;-79
2022/12/02 06:08:47;;;;;;;;;46.75;40.00;;;;;;;;4927588;29;11632;-80
2022/12/02 06:11:28;;;;;;;;;57.25;45.50;;;;;;;;4927266;29;11737;-79
2022/12/02 06:13:59;;;;;;;;;58.50;45.25;;;;;;;;4925554;29;11554;-79
2022/12/02 06:16:29;;;;;;;;;58.75;49.00;;;;;;;;4929236;28;12347;-80
2022/12/02 06:18:57;;;;;;;;;62.75;50.25;;;;;;;;4926828;29;11595;-80
2022/12/02 06:21:26;;;;;;;;;61.00;49.75;;;;;;;;4925343;29;12398;-78
2022/12/02 06:23:57;;;;;;;;;58.00;47.25;;;;;;;;4925341;29;11596;-79
2022/12/02 06:26:24;;;;;;;;;62.00;49.00;;;;;;;;4925213;29;11731;-80
2022/12/02 06:28:57;;;;;;;;;62.00;48.00;;;;;;;;4892996;29;11666;-79
2022/12/02 06:31:30;;;;;;;;;61.00;49.50;;;;;;;;4925011;29;11679;-79
2022/12/02 06:33:59;;;;;;;;;58.75;48.25;;;;;;;;4925854;29;11551;-79
2022/12/02 06:36:32;;;;;;;;;62.00;50.00;;;;;;;;4928393;29;11585;-79
2022/12/02 06:39:02;;;;;;;;;63.50;49.25;;;;;;;;4909316;29;11605;-79
2022/12/02 06:41:31;;;;;;;;;55.00;44.75;;;;;;;;4926795;29;11593;-79
2022/12/02 06:46:45;;;;;;;;;62.50;50.25;;;;;;;;4926326;29;11529;-81
2022/12/02 06:49:18;;;;;;;;;48.50;40.75;;;;;;;;4927698;29;11552;-80
2022/12/02 06:51:47;;;;;;;;;65.50;51.00;;;;;;;;4926725;29;11537;-79
2022/12/02 06:54:20;;;;;;;;;53.00;41.50;;;;;;;;4926603;29;11588;-82
2022/12/02 06:56:48;;;;;;;;;80.50;58.50;;;;;;;;4926822;29;11547;-82
2022/12/02 06:59:20;;;;;;;;;54.25;44.75;;;;;;;;4911268;29;11677;-81
2022/12/02 07:01:47;;;;;;;;;75.50;59.75;;;;;;;;4927658;29;11528;-81
2022/12/02 07:04:31;;;;;;;;;62.50;52.75;;;;;;;;4927471;28;11562;-80
2022/12/02 07:07:02;;;;;;;;;69.75;54.25;;;;;;;;4908178;29;11608;-80
2022/12/02 07:09:37;;;;;;;;;67.50;54.75;;;;;;;;4908470;29;11672;-81
2022/12/02 07:12:10;;;;;;;;;65.75;53.00;;;;;;;;4923347;29;11544;-81
2022/12/02 07:14:44;;;;;;;;;64.25;51.00;;;;;;;;4925787;29;11578;-77
2022/12/02 07:17:28;;;;;;;;;71.25;55.00;;;;;;;;4936966;29;11573;-80
2022/12/02 07:20:00;;;;;;;;;68.50;50.75;;;;;;;;4937985;29;11755;-78
2022/12/02 07:22:34;;;;;;;;;72.50;55.75;;;;;;;;4930007;29;11698;-78
2022/12/02 07:25:24;;;;;;;;;65.00;53.50;;;;;;;;4933424;28;12344;-76
2022/12/02 07:27:53;;;;;;;;;60.75;47.50;;;;;;;;4923512;29;11539;-76
2022/12/02 07:30:23;;;;;;;;;64.00;48.00;;;;;;;;4928343;29;11537;-78
2022/12/02 07:32:51;;;;;;;;;62.50;50.50;;;;;;;;4928670;29;12232;-79
2022/12/02 07:35:21;;;;;;;;;66.75;50.75;;;;;;;;4924356;29;11655;-80
2022/12/02 07:37:50;;;;;;;;;61.50;49.50;;;;;;;;4924885;29;11584;-76
2022/12/02 07:40:19;;;;;;;;;72.00;52.75;;;;;;;;4924619;29;11648;-78
2022/12/02 07:42:47;;;;;;;;;67.75;52.25;;;;;;;;4922471;29;11726;-77
2022/12/02 07:45:16;;;;;;;;;64.50;51.75;;;;;;;;4923321;29;11634;-75
2022/12/02 07:47:44;;;;;;;;;65.00;49.25;;;;;;;;4925783;29;11562;-75
2022/12/02 07:50:14;;;;;;;;;69.00;52.25;;;;;;;;4924795;29;11578;-76
2022/12/02 07:52:42;;;;;;;;;73.75;56.25;;;;;;;;4924583;29;11595;-76
2022/12/02 07:55:11;;;;;;;;;60.75;50.50;;;;;;;;4921159;29;12368;-77
2022/12/02 07:57:39;;;;;;;;;68.25;53.25;;;;;;;;4906488;29;11587;-77
2022/12/02 08:03:30;;;;;;;;;60.50;50.00;;;;;;;;4928402;28;11510;-76
2022/12/02 08:05:57;;;;;;;;;65.75;51.25;;;;;;;;4926965;29;11674;-76
2022/12/02 08:08:24;;;;;;;;;64.00;51.00;;;;;;;;4926801;29;11635;-76
2022/12/02 08:10:54;;;;;;;;;65.50;52.75;;;;;;;;4928633;29;11687;-76
2022/12/02 08:13:25;;;;;;;;;61.50;49.50;;;;;;;;4928735;29;11565;-77
2022/12/02 08:15:52;;;;;;;;;69.50;53.00;;;;;;;;4927907;29;11681;-77
2022/12/02 08:18:20;;;;;;;;;69.25;56.75;;;;;;;;4928060;29;13231;-76
2022/12/02 08:20:48;;;;;;;;;75.00;56.25;;;;;;;;4928925;29;11780;-77
2022/12/02 08:23:16;;;;;;;;;71.75;54.25;;;;;;;;4929108;29;11606;-77
2022/12/02 08:25:44;;;;;;;;;63.50;47.50;;;;;;;;4929732;29;11612;-77
2022/12/02 08:28:15;;;;;;;;;69.25;54.00;;;;;;;;4912473;29;11555;-76
2022/12/02 08:30:43;;;;;;;;;65.75;52.00;;;;;;;;4929702;29;11585;-77
2022/12/02 08:33:11;;;;;;;;;66.00;53.75;;;;;;;;4895991;29;11538;-77
2022/12/02 08:35:40;;;;;;;;;65.75;53.00;;;;;;;;4926429;29;11705;-76
2022/12/02 08:38:07;;;;;;;;;67.75;52.00;;;;;;;;4892277;29;11716;-75
2022/12/02 08:40:35;;;;;;;;;69.25;54.00;;;;;;;;4929354;29;11785;-75
2022/12/02 08:43:03;;;;;;;;;57.25;46.00;;;;;;;;4927239;29;11643;-74
2022/12/02 08:45:32;;;;;;;;;70.75;55.00;;;;;;;;4911983;29;11655;-78
2022/12/02 08:48:00;;;;;;;;;72.00;55.50;;;;;;;;4927945;29;11583;-78
2022/12/02 08:50:28;;;;;;;;;65.00;53.00;;;;;;;;4897629;29;11706;-80
2022/12/02 08:52:57;;;;;;;;;66.25;53.75;;;;;;;;4912832;29;11737;-79
2022/12/02 08:55:27;;;;;;;;;67.75;54.00;;;;;;;;4926776;29;11667;-79
2022/12/02 08:57:56;;;;;;;;;61.25;47.75;;;;;;;;4926733;29;12401;-74
2022/12/02 09:00:25;;;;;;;;;68.25;54.00;;;;;;;;4926789;29;11632;-81
2022/12/02 09:02:54;;;;;;;;;68.75;51.50;;;;;;;;4925933;29;11711;-76
2022/12/02 09:05:22;;;;;;;;;68.50;53.25;;;;;;;;4907945;29;11587;-76
2022/12/02 09:07:51;;;;;;;;;70.00;54.00;;;;;;;;4927951;28;11658;-76
2022/12/02 09:10:21;;;;;;;;;71.50;56.75;;;;;;;;4907539;29;11650;-77
2022/12/02 09:12:49;;;;;;;;;67.00;52.75;;;;;;;;4911596;29;11584;-77
2022/12/02 09:15:17;;;;;;;;;53.50;47.25;;;;;;;;4927417;29;11735;-76
2022/12/02 09:17:45;;;;;;;;;69.00;56.75;;;;;;;;4907261;29;11669;-78
2022/12/02 09:20:15;;;;;;;;;69.75;54.75;;;;;;;;4925068;29;11601;-76
2022/12/02 09:22:44;;;;;;;;;74.00;58.75;;;;;;;;4925878;29;12121;-76
2022/12/02 09:25:12;;;;;;;;;66.25;53.00;;;;;;;;4923723;29;11691;-78
2022/12/02 09:27:40;;;;;;;;;60.75;50.50;;;;;;;;4910220;29;12490;-78
2022/12/02 09:30:09;;;;;;;;;66.00;53.50;;;;;;;;4928258;29;11574;-74
2022/12/02 09:32:40;;;;;;;;;67.25;51.50;;;;;;;;4927556;29;11809;-77
2022/12/02 09:35:08;;;;;;;;;77.00;57.00;;;;;;;;4927972;29;11698;-80
2022/12/02 09:37:38;;;;;;;;;67.50;51.00;;;;;;;;4927815;29;11579;-78
2022/12/02 09:40:07;;;;;;;;;72.00;55.75;;;;;;;;4911267;29;11548;-78
2022/12/02 09:42:35;;;;;;;;;63.00;51.25;;;;;;;;4923861;29;11547;-79
2022/12/02 09:45:03;;;;;;;;;71.00;53.00;;;;;;;;4926124;29;11581;-78
2022/12/02 09:47:31;;;;;;;;;66.75;55.00;;;;;;;;4927060;29;12406;-77
2022/12/02 09:50:00;;;;;;;;;63.25;52.25;;;;;;;;4925326;29;11548;-77
2022/12/02 09:52:28;;;;;;;;;66.75;52.25;;;;;;;;4924994;29;11551;-77
2022/12/02 09:54:59;;;;;;;;;64.25;52.75;;;;;;;;4924297;29;11594;-77
2022/12/02 09:57:30;;;;;;;;;60.75;47.25;;;;;;;;4908845;29;11686;-77
2022/12/02 09:59:59;;;;;;;;;56.25;46.50;;;;;;;;4925893;29;12098;-76
2022/12/02 10:02:32;;;;;;;;;60.25;50.75;;;;;;;;4924089;28;11550;-75
2022/12/02 10:05:07;;;;;;;;;67.75;52.50;;;;;;;;4924436;29;12435;-73
2022/12/02 10:07:35;;;;;;;;;70.25;54.75;;;;;;;;4923770;29;11571;-74
2022/12/02 10:10:04;;;;;;;;;69.75;56.00;;;;;;;;4926030;29;11656;-76
2022/12/02 10:12:33;;;;;;;;;71.00;55.50;;;;;;;;4910381;29;11671;-75
2022/12/02 10:15:01;;;;;;;;;69.00;51.75;;;;;;;;4927957;29;11730;-75
2022/12/02 10:17:32;;;;;;;;;67.75;51.25;;;;;;;;4927323;29;11579;-76
2022/12/02 10:20:00;;;;;;;;;65.50;51.75;;;;;;;;4926296;29;11712;-75
2022/12/02 10:22:28;;;;;;;;;64.75;50.75;;;;;;;;4932279;29;11631;-75
2022/12/02 10:24:57;;;;;;;;;67.50;54.50;;;;;;;;4931020;29;11599;-75
2022/12/02 10:27:32;;;;;;;;;70.50;56.00;;;;;;;;4926326;28;11683;-77
2022/12/02 10:30:15;;;;;;;;;68.50;53.25;;;;;;;;4927355;29;11571;-77
2022/12/02 10:32:44;;;;;;;;;65.00;50.25;;;;;;;;4925956;29;11638;-76
2022/12/02 10:35:13;;;;;;;;;66.75;52.75;;;;;;;;4923828;29;11693;-74
2022/12/02 10:37:42;;;;;;;;;66.75;52.00;;;;;;;;4924948;29;11637;-75
2022/12/02 10:40:15;;;;;;;;;65.75;51.25;;;;;;;;4924639;29;11580;-78
2022/12/02 10:42:45;;;;;;;;;67.25;52.25;;;;;;;;4925873;29;11569;-77
2022/12/02 10:45:21;;;;;;;;;64.75;51.00;;;;;;;;4924472;29;11711;-74
2022/12/02 10:47:50;;;;;;;;;65.50;53.50;;;;;;;;4924304;29;11604;-75
2022/12/02 10:50:22;;;;;;;;;64.50;51.00;;;;;;;;4923738;29;11590;-74
2022/12/02 10:52:52;;;;;;;;;62.50;51.00;;;;;;;;4922670;29;11688;-75
2022/12/02 10:55:22;;;;;;;;;57.50;49.25;;;;;;;;4907599;29;11560;-76
2022/12/02 10:57:55;;;;;;;;;58.50;48.00;;;;;;;;4925251;29;11637;-78
2022/12/02 11:00:25;;;;;;;;;59.50;47.00;;;;;;;;4925140;29;11688;-80
2022/12/02 11:02:54;;;;;;;;;65.25;46.75;;;;;;;;4925754;29;11545;-77
2022/12/02 11:05:24;;;;;;;;;64.75;50.25;;;;;;;;4906583;29;11552;-77
2022/12/02 11:07:54;;;;;;;;;69.75;52.50;;;;;;;;4908534;29;11559;-78
2022/12/02 11:10:24;;;;;;;;;62.00;51.00;;;;;;;;4925418;29;11711;-79
2022/12/02 11:13:08;;;;;;;;;66.25;53.75;;;;;;;;4926451;29;12481;-80
2022/12/02 11:15:39;;;;;;;;;64.50;52.25;;;;;;;;4924487;29;11581;-75
2022/12/02 11:18:09;;;;;;;;;73.75;57.00;;;;;;;;4923417;29;11648;-75
2022/12/02 11:20:42;;;;;;;;;68.50;52.00;;;;;;;;4926528;29;11565;-75
2022/12/02 11:23:22;;;;;;;;;65.00;50.50;;;;;;;;4923320;29;11595;-76
2022/12/02 11:26:09;;;;;;;;;65.50;52.50;;;;;;;;4922794;29;11559;-76
2022/12/02 11:29:05;;;;;;;;;71.25;52.00;;;;;;;;4919561;29;11555;-76
2022/12/02 11:31:33;;;;;;;;;71.75;52.25;;;;;;;;4924136;29;11622;-76
2022/12/02 11:34:31;;;;;;;;;70.25;53.25;;;;;;;;4923838;29;11725;-76
2022/12/02 11:37:48;;;;;;;;;67.75;49.00;;;;;;;;4927989;29;11651;-76
2022/12/02 11:40:55;;;;;;;;;69.00;52.75;;;;;;;;4927608;29;11707;-76
2022/12/02 11:43:43;;;;;;;;;71.00;55.00;;;;;;;;4926661;29;11574;-76
2022/12/02 11:46:11;;;;;;;;;68.75;52.25;;;;;;;;4923139;29;11565;-76
2022/12/02 11:48:46;;;;;;;;;63.75;51.75;;;;;;;;4927630;29;11617;-76
2022/12/02 11:51:30;;;;;;;;;76.00;58.25;;;;;;;;4926784;29;12379;-76
2022/12/02 11:53:58;;;;;;;;;58.25;49.00;;;;;;;;4926173;29;11555;-76
2022/12/02 11:56:29;;;;;;;;;68.25;53.75;;;;;;;;4926396;29;12491;-76
2022/12/02 11:58:58;;;;;;;;;66.00;54.00;;;;;;;;4928238;29;11567;-75
2022/12/02 12:01:26;;;;;;;;;68.25;51.00;;;;;;;;4908894;29;11623;-77
2022/12/02 12:03:54;;;;;;;;;68.25;53.00;;;;;;;;4928018;29;11562;-76
2022/12/02 12:06:23;;;;;;;;;65.50;52.25;;;;;;;;4911721;29;11595;-76
2022/12/02 12:08:53;;;;;;;;;59.25;47.25;;;;;;;;4928313;29;11694;-76
2022/12/02 12:11:26;;;;;;;;;66.00;52.00;;;;;;;;4926466;29;12483;-76
2022/12/02 12:14:03;;;;;;;;;63.75;49.00;;;;;;;;4927329;29;11595;-77
2022/12/02 12:16:32;;;;;;;;;56.75;47.75;;;;;;;;4928574;29;12491;-77
2022/12/02 12:19:00;;;;;;;;;66.50;52.00;;;;;;;;4909727;29;11525;-76
2022/12/02 12:21:46;;;;;;;;;65.00;50.75;;;;;;;;4927098;29;11577;-77
2022/12/02 12:24:29;;;;;;;;;66.75;53.25;;;;;;;;4927780;29;11580;-76
2022/12/02 12:26:58;;;;;;;;;64.25;53.50;;;;;;;;4926133;29;12449;-76
2022/12/02 12:29:30;;;;;;;;;65.25;52.50;;;;;;;;4927221;29;11654;-76
2022/12/02 12:31:59;;;;;;;;;71.75;57.50;;;;;;;;4928028;29;11713;-75
2022/12/02 12:34:28;;;;;;;;;63.25;46.50;;;;;;;;4925868;29;11546;-76
2022/12/02 12:36:56;;;;;;;;;68.00;55.00;;;;;;;;4928021;29;11738;-76
2022/12/02 12:39:24;;;;;;;;;72.75;54.00;;;;;;;;4925103;29;11679;-77
2022/12/02 12:41:53;;;;;;;;;63.25;48.50;;;;;;;;4926661;29;11758;-78
2022/12/02 12:44:21;;;;;;;;;61.00;51.50;;;;;;;;4928848;29;11560;-76
2022/12/02 12:46:51;;;;;;;;;67.50;53.00;;;;;;;;4911703;29;11569;-75
2022/12/02 12:49:18;;;;;;;;;62.25;48.50;;;;;;;;4926386;29;11575;-75
2022/12/02 12:51:45;;;;;;;;;65.00;49.00;;;;;;;;4926954;29;11578;-75
2022/12/02 12:54:13;;;;;;;;;73.75;51.75;;;;;;;;4927932;29;11958;-75
2022/12/02 12:56:42;;;;;;;;;59.50;49.25;;;;;;;;4928756;29;12486;-78
2022/12/02 12:59:09;;;;;;;;;61.00;48.25;;;;;;;;4928570;29;11568;-75
2022/12/02 13:01:37;;;;;;;;;66.25;48.25;;;;;;;;4927910;29;11564;-75
2022/12/02 13:04:06;;;;;;;;;57.50;47.00;;;;;;;;4925857;29;11789;-73
2022/12/02 13:06:35;;;;;;;;;52.50;44.00;;;;;;;;4910088;29;11069;-74
2022/12/02 13:09:04;;;;;;;;;56.00;44.25;;;;;;;;4925115;29;11560;-74
2022/12/02 13:11:32;;;;;;;;;57.00;46.25;;;;;;;;4926738;29;11586;-75
2022/12/02 13:14:00;;;;;;;;;55.25;47.75;;;;;;;;4927252;29;11535;-74
2022/12/02 13:16:28;;;;;;;;;58.00;49.00;;;;;;;;4926386;29;11579;-77
2022/12/02 13:18:58;;;;;;;;;61.00;52.00;;;;;;;;4927650;29;11659;-76
2022/12/02 13:21:27;;;;;;;;;57.00;44.75;;;;;;;;4927242;29;11651;-77
2022/12/02 13:23:55;;;;;;;;;64.50;51.00;;;;;;;;4927629;29;11521;-76
2022/12/02 13:26:24;;;;;;;;;54.75;38.75;;;;;;;;4925109;29;11615;-75
2022/12/02 13:28:53;;;;;;;;;54.00;43.00;;;;;;;;4894524;29;11603;-76
2022/12/02 13:31:24;;;;;;;;;54.75;44.25;;;;;;;;4925857;29;11620;-74
2022/12/02 13:33:53;;;;;;;;;60.00;45.25;;;;;;;;4926860;29;11541;-75
2022/12/02 13:36:21;;;;;;;;;60.00;49.50;;;;;;;;4925856;29;11638;-75
2022/12/02 13:38:51;;;;;;;;;52.75;41.50;;;;;;;;4925895;29;11552;-75
2022/12/02 13:41:19;;;;;;;;;59.75;46.75;;;;;;;;4926678;29;11594;-75
2022/12/02 13:43:46;;;;;;;;;48.00;42.75;;;;;;;;4926371;29;11554;-74
2022/12/02 13:46:14;;;;;;;;;63.50;44.25;;;;;;;;4926466;29;11630;-75
2022/12/02 13:48:42;;;;;;;;;59.00;44.25;;;;;;;;4925660;29;12471;-75
2022/12/02 13:51:10;;;;;;;;;61.25;48.75;;;;;;;;4924384;29;12341;-74
2022/12/02 13:53:38;;;;;;;;;54.00;44.25;;;;;;;;4924353;29;11554;-74
2022/12/02 13:56:08;;;;;;;;;64.00;50.50;;;;;;;;4928194;29;11592;-76
2022/12/02 13:58:36;;;;;;;;;51.50;43.25;;;;;;;;4907591;29;11641;-76
2022/12/02 14:01:04;;;;;;;;;57.00;47.50;;;;;;;;4925270;29;11637;-76
2022/12/02 14:03:33;;;;;;;;;57.50;45.25;;;;;;;;4927112;29;11580;-77
2022/12/02 14:06:01;;;;;;;;;60.75;48.00;;;;;;;;4909073;29;11587;-76
2022/12/02 14:08:28;;;;;;;;;60.25;48.25;;;;;;;;4925655;29;11553;-78
2022/12/02 14:10:56;;;;;;;;;54.00;41.75;;;;;;;;4926008;29;11583;-76
2022/12/02 14:13:26;;;;;;;;;55.75;46.00;;;;;;;;4923234;29;11527;-75
2022/12/02 14:15:54;;;;;;;;;57.00;44.25;;;;;;;;4908555;28;11613;-76
2022/12/02 14:18:23;;;;;;;;;53.75;44.50;;;;;;;;4926642;29;12419;-74
2022/12/02 14:20:51;;;;;;;;;61.50;46.50;;;;;;;;4926392;29;11556;-75
2022/12/02 14:23:20;;;;;;;;;58.00;47.00;;;;;;;;4927360;29;11659;-74
2022/12/02 14:25:48;;;;;;;;;37.00;32.25;;;;;;;;4926491;29;11558;-76
2022/12/02 14:28:16;;;;;;;;;55.25;44.50;;;;;;;;4935346;29;11540;-75
2022/12/02 14:30:45;;;;;;;;;61.75;44.00;;;;;;;;4925824;29;11714;-75
2022/12/02 14:33:14;;;;;;;;;54.50;42.00;;;;;;;;4925900;29;12824;-75
2022/12/02 14:35:42;;;;;;;;;55.50;43.50;;;;;;;;4922606;29;11569;-75
2022/12/02 14:38:10;;;;;;;;;51.00;40.75;;;;;;;;4924228;29;11569;-74
2022/12/02 14:40:38;;;;;;;;;55.50;40.00;;;;;;;;4925309;29;12377;-74
2022/12/02 14:43:06;;;;;;;;;46.25;38.75;;;;;;;;4924138;29;11647;-75